createdAt,value
2022-12-08T00:01:24.895Z,3.10
2022-12-08T00:03:53.794Z,3.10
2022-12-08T00:06:44.390Z,3.10
2022-12-08T00:09:25.919Z,3.10
2022-12-08T00:11:56.904Z,3.10
2022-12-08T00:14:27.944Z,3.10
2022-12-08T00:16:57.653Z,3.10
2022-12-08T00:19:26.485Z,3.10
2022-12-08T00:21:55.407Z,3.10
2022-12-08T00:24:27.054Z,3.10
2022-12-08T00:26:55.463Z,3.10
2022-12-08T00:29:24.364Z,3.10
2022-12-08T00:31:53.021Z,3.10
2022-12-08T00:34:21.663Z,3.10
2022-12-08T00:36:49.985Z,3.10
2022-12-08T00:39:19.654Z,3.10
2022-12-08T00:42:06.945Z,3.10
2022-12-08T00:44:35.494Z,3.00
2022-12-08T00:47:03.983Z,3.10
2022-12-08T00:49:32.523Z,3.10
2022-12-08T00:52:01.003Z,3.00
2022-12-08T00:54:29.394Z,3.00
2022-12-08T00:56:59.131Z,3.00
2022-12-08T00:59:27.717Z,3.00
2022-12-08T01:01:56.142Z,3.00
2022-12-08T01:04:24.525Z,3.00
2022-12-08T01:06:53.313Z,3.00
2022-12-08T01:09:22.018Z,3.00
2022-12-08T01:11:50.508Z,3.00
2022-12-08T01:14:20.047Z,3.00
2022-12-08T01:16:49.084Z,3.00
2022-12-08T01:19:18.238Z,3.00
2022-12-08T01:21:47.611Z,3.00
2022-12-08T01:24:17.596Z,3.00
2022-12-08T01:26:46.546Z,3.00
2022-12-08T01:29:14.990Z,3.00
2022-12-08T01:31:44.878Z,3.00
2022-12-08T01:34:13.903Z,3.00
2022-12-08T01:36:44.532Z,3.00
2022-12-08T01:39:16.978Z,3.00
2022-12-08T01:41:46.634Z,3.00
2022-12-08T01:44:53.227Z,3.10
2022-12-08T01:47:24.334Z,3.10
2022-12-08T01:49:52.993Z,3.10
2022-12-08T01:52:26.224Z,3.10
2022-12-08T01:54:58.486Z,3.10
2022-12-08T01:57:31.855Z,3.10
2022-12-08T02:00:04.379Z,3.10
2022-12-08T02:02:43.299Z,3.10
2022-12-08T02:05:13.462Z,3.10
2022-12-08T02:07:42.251Z,3.10
2022-12-08T02:10:15.246Z,3.10
2022-12-08T02:12:43.732Z,3.10
2022-12-08T02:15:12.684Z,3.10
2022-12-08T02:17:59.495Z,3.10
2022-12-08T02:20:46.253Z,3.10
2022-12-08T02:23:25.268Z,3.10
2022-12-08T02:26:36.865Z,3.10
2022-12-08T02:29:38.782Z,3.10
2022-12-08T02:32:38.344Z,3.10
2022-12-08T02:35:12.168Z,3.10
2022-12-08T02:37:47.946Z,3.10
2022-12-08T02:40:23.295Z,3.10
2022-12-08T02:42:57.463Z,3.10
2022-12-08T02:45:31.278Z,3.10
2022-12-08T02:48:01.137Z,3.10
2022-12-08T02:50:31.198Z,3.10
2022-12-08T02:52:59.684Z,3.10
2022-12-08T02:55:30.995Z,3.10
2022-12-08T02:58:30.836Z,3.10
2022-12-08T03:01:24.062Z,3.10
2022-12-08T03:04:01.406Z,3.10
2022-12-08T03:06:36.526Z,3.10
2022-12-08T03:09:11.804Z,3.10
2022-12-08T03:11:45.977Z,3.10
2022-12-08T03:14:18.516Z,3.10
2022-12-08T03:16:50.994Z,3.10
2022-12-08T03:19:22.198Z,3.10
2022-12-08T03:22:00.481Z,3.00
2022-12-08T03:24:29.557Z,3.00
2022-12-08T03:27:01.275Z,3.00
2022-12-08T03:29:30.271Z,3.00
2022-12-08T03:32:09.185Z,3.00
2022-12-08T03:34:39.512Z,3.00
2022-12-08T03:37:09.554Z,3.00
2022-12-08T03:39:38.177Z,3.00
2022-12-08T03:42:06.929Z,3.00
2022-12-08T03:44:35.588Z,3.00
2022-12-08T03:47:04.116Z,3.00
2022-12-08T03:49:32.666Z,3.00
2022-12-08T03:52:01.116Z,3.00
2022-12-08T03:54:31.155Z,3.00
2022-12-08T03:56:59.646Z,3.00
2022-12-08T03:59:27.907Z,3.00
2022-12-08T04:01:56.358Z,3.00
2022-12-08T04:04:24.856Z,3.00
2022-12-08T04:06:53.346Z,3.00
2022-12-08T04:09:21.878Z,3.00
2022-12-08T04:11:51.786Z,3.00
2022-12-08T04:14:20.397Z,3.00
2022-12-08T04:16:48.806Z,3.00
2022-12-08T04:19:17.207Z,3.00
2022-12-08T04:21:45.692Z,3.00
2022-12-08T04:24:14.165Z,3.00
2022-12-08T04:26:42.595Z,3.00
2022-12-08T04:29:12.497Z,3.00
2022-12-08T04:31:41.132Z,3.10
2022-12-08T04:34:10.285Z,3.10
2022-12-08T04:36:38.822Z,3.10
2022-12-08T04:39:07.705Z,3.10
2022-12-08T04:41:36.166Z,3.10
2022-12-08T04:44:04.735Z,3.10
2022-12-08T04:46:37.775Z,3.10
2022-12-08T04:49:08.749Z,3.20
2022-12-08T04:51:37.206Z,3.20
2022-12-08T04:54:05.952Z,3.20
2022-12-08T04:56:34.609Z,3.20
2022-12-08T04:59:03.679Z,3.20
2022-12-08T05:01:32.374Z,3.20
2022-12-08T05:04:02.385Z,3.20
2022-12-08T05:06:30.794Z,3.20
2022-12-08T05:08:59.175Z,3.30
2022-12-08T05:11:27.605Z,3.30
2022-12-08T05:13:56.146Z,3.30
2022-12-08T05:16:24.624Z,3.30
2022-12-08T05:18:53.028Z,3.30
2022-12-08T05:21:22.875Z,3.30
2022-12-08T05:23:51.224Z,3.30
2022-12-08T05:26:19.935Z,3.20
2022-12-08T05:28:48.406Z,3.20
2022-12-08T05:31:18.135Z,3.20
2022-12-08T05:33:47.368Z,3.20
2022-12-08T05:36:17.115Z,3.20
2022-12-08T05:38:47.744Z,3.20
2022-12-08T05:41:18.288Z,3.20
2022-12-08T05:43:47.211Z,3.20
2022-12-08T05:46:16.438Z,3.20
2022-12-08T05:48:45.133Z,3.20
2022-12-08T05:51:19.719Z,3.10
2022-12-08T05:53:50.676Z,3.10
2022-12-08T05:56:19.198Z,3.10
2022-12-08T05:58:47.963Z,3.10
2022-12-08T06:01:25.091Z,3.10
2022-12-08T06:03:53.864Z,3.10
2022-12-08T06:06:23.008Z,3.10
2022-12-08T06:08:53.036Z,3.10
2022-12-08T06:11:23.205Z,3.00
2022-12-08T06:13:52.426Z,3.00
2022-12-08T06:16:21.348Z,3.00
2022-12-08T06:18:50.163Z,3.00
2022-12-08T06:21:18.857Z,3.00
2022-12-08T06:23:50.471Z,3.00
2022-12-08T06:26:21.175Z,3.00
2022-12-08T06:28:50.524Z,3.10
2022-12-08T06:31:21.181Z,3.10
2022-12-08T06:33:49.897Z,3.10
2022-12-08T06:36:20.405Z,3.10
2022-12-08T06:38:49.255Z,3.10
2022-12-08T06:41:19.885Z,3.10
2022-12-08T06:43:48.373Z,3.10
2022-12-08T06:46:19.327Z,3.10
2022-12-08T06:48:48.119Z,3.10
2022-12-08T06:51:18.837Z,3.10
2022-12-08T06:53:48.095Z,3.20
2022-12-08T06:56:20.251Z,3.20
2022-12-08T06:58:52.705Z,3.20
2022-12-08T07:01:21.796Z,3.20
2022-12-08T07:03:50.185Z,3.20
2022-12-08T07:06:23.023Z,3.20
2022-12-08T07:08:51.585Z,3.20
2022-12-08T07:11:22.313Z,3.20
2022-12-08T07:13:53.054Z,3.20
2022-12-08T07:16:21.571Z,3.20
2022-12-08T07:18:50.094Z,3.20
2022-12-08T07:21:19.293Z,3.20
2022-12-08T07:23:54.249Z,3.20
2022-12-08T07:26:27.001Z,3.20
2022-12-08T07:28:57.059Z,3.20
2022-12-08T07:31:26.784Z,3.10
2022-12-08T07:33:56.364Z,3.10
2022-12-08T07:36:25.865Z,3.10
2022-12-08T07:38:55.177Z,3.10
2022-12-08T07:41:27.102Z,3.10
2022-12-08T07:43:57.775Z,3.10
2022-12-08T07:46:27.232Z,3.10
2022-12-08T07:48:57.475Z,3.10
2022-12-08T07:51:26.294Z,3.10
2022-12-08T07:53:55.370Z,3.10
2022-12-08T07:56:24.129Z,3.10
2022-12-08T07:58:52.766Z,3.10
2022-12-08T08:01:25.308Z,3.10
2022-12-08T08:03:54.738Z,3.20
2022-12-08T08:06:23.196Z,3.20
2022-12-08T08:08:51.850Z,3.20
2022-12-08T08:11:21.652Z,3.20
2022-12-08T08:13:50.397Z,3.20
2022-12-08T08:16:19.479Z,3.20
2022-12-08T08:18:50.927Z,3.20
2022-12-08T08:24:09.367Z,3.20
2022-12-08T08:26:38.005Z,3.20
2022-12-08T08:29:06.546Z,3.30
2022-12-08T08:31:35.352Z,3.30
2022-12-08T08:34:06.691Z,3.30
2022-12-08T08:36:35.555Z,3.30
2022-12-08T08:39:04.786Z,3.30
2022-12-08T08:41:33.399Z,3.30
2022-12-08T08:44:01.818Z,3.30
2022-12-08T08:46:30.411Z,3.30
2022-12-08T08:48:59.306Z,3.30
2022-12-08T08:51:29.413Z,3.30
2022-12-08T08:53:58.224Z,3.30
2022-12-08T08:56:27.175Z,3.30
2022-12-08T08:58:56.001Z,3.30
2022-12-08T09:01:26.551Z,3.30
2022-12-08T09:03:55.496Z,3.30
2022-12-08T09:06:25.073Z,3.40
2022-12-08T09:08:54.877Z,3.40
2022-12-08T09:11:24.303Z,3.40
2022-12-08T09:13:53.587Z,3.40
2022-12-08T09:16:22.966Z,3.40
2022-12-08T09:18:51.910Z,3.40
2022-12-08T09:21:22.910Z,3.40
2022-12-08T09:23:52.496Z,3.40
2022-12-08T09:26:23.284Z,3.40
2022-12-08T09:28:51.846Z,3.40
2022-12-08T09:31:21.908Z,3.40
2022-12-08T09:33:51.785Z,3.40
2022-12-08T09:36:20.988Z,3.40
2022-12-08T09:38:51.305Z,3.30
2022-12-08T09:41:36.545Z,3.30
2022-12-08T09:44:44.207Z,3.40
2022-12-08T09:47:20.802Z,3.40
2022-12-08T09:49:56.207Z,3.40
2022-12-08T09:52:28.116Z,3.40
2022-12-08T09:54:59.394Z,3.40
2022-12-08T09:57:30.924Z,3.40
2022-12-08T10:00:04.224Z,3.40
2022-12-08T10:02:33.081Z,3.50
2022-12-08T10:05:01.491Z,3.50
2022-12-08T10:07:40.239Z,3.50
2022-12-08T10:10:21.090Z,3.50
2022-12-08T10:12:57.266Z,3.50
2022-12-08T10:15:41.009Z,3.60
2022-12-08T10:18:16.109Z,3.50
2022-12-08T10:20:47.508Z,3.60
2022-12-08T10:23:25.694Z,3.60
2022-12-08T10:26:00.568Z,3.70
2022-12-08T10:28:30.620Z,3.70
2022-12-08T10:30:58.979Z,3.70
2022-12-08T10:33:29.231Z,3.70
2022-12-08T10:36:00.678Z,3.70
2022-12-08T10:38:32.223Z,3.70
2022-12-08T10:41:05.677Z,3.70
2022-12-08T10:43:37.956Z,3.70
2022-12-08T10:46:12.300Z,3.70
2022-12-08T10:48:50.185Z,3.70
2022-12-08T10:51:29.065Z,3.70
2022-12-08T10:53:58.077Z,3.70
2022-12-08T10:56:28.919Z,3.70
2022-12-08T10:59:17.953Z,3.70
2022-12-08T11:01:49.240Z,3.70
2022-12-08T11:04:20.186Z,3.70
2022-12-08T11:06:49.711Z,3.70
2022-12-08T11:09:31.115Z,3.70
2022-12-08T11:12:00.497Z,3.70
2022-12-08T11:14:32.982Z,3.80
2022-12-08T11:17:07.567Z,3.80
2022-12-08T11:19:39.594Z,3.80
2022-12-08T11:22:23.155Z,3.80
2022-12-08T11:25:00.338Z,3.80
2022-12-08T11:27:28.821Z,3.90
2022-12-08T11:29:58.784Z,3.90
2022-12-08T11:32:27.255Z,3.90
2022-12-08T11:35:01.897Z,3.90
2022-12-08T11:37:35.412Z,4.00
2022-12-08T11:40:08.973Z,4.00
2022-12-08T11:42:49.343Z,4.00
2022-12-08T11:45:25.806Z,4.00
2022-12-08T11:48:05.097Z,4.00
2022-12-08T11:50:41.433Z,4.00
2022-12-08T11:53:19.674Z,4.00
2022-12-08T11:55:53.303Z,4.00
2022-12-08T11:58:26.855Z,4.00
2022-12-08T12:00:56.655Z,4.10
2022-12-08T12:03:32.463Z,4.10
2022-12-08T12:09:18.995Z,4.10
2022-12-08T12:12:15.915Z,4.10
2022-12-08T12:15:23.340Z,4.10
2022-12-08T12:17:56.830Z,4.10
2022-12-08T12:20:29.385Z,4.10
2022-12-08T12:23:01.998Z,4.10
2022-12-08T12:25:30.674Z,4.10
2022-12-08T12:28:03.415Z,4.10
2022-12-08T12:30:51.150Z,4.10
2022-12-08T12:33:22.056Z,4.10
2022-12-08T12:35:50.605Z,4.10
2022-12-08T12:38:42.414Z,4.00
2022-12-08T12:41:13.031Z,4.00
2022-12-08T12:43:41.737Z,4.00
2022-12-08T12:46:46.500Z,4.00
2022-12-08T12:50:07.618Z,4.00
2022-12-08T12:52:51.036Z,4.00
2022-12-08T12:55:53.734Z,4.00
2022-12-08T12:58:41.087Z,4.00
2022-12-08T13:01:38.715Z,4.00
2022-12-08T13:04:09.437Z,4.00
2022-12-08T13:06:43.119Z,3.90
2022-12-08T13:09:31.435Z,3.90
2022-12-08T13:12:08.574Z,3.90
2022-12-08T13:14:39.199Z,3.90
2022-12-08T13:17:13.568Z,3.90
2022-12-08T13:19:48.810Z,3.90
2022-12-08T13:22:49.507Z,3.90
2022-12-08T13:25:57.545Z,3.90
2022-12-08T13:28:30.204Z,3.90
2022-12-08T13:30:59.904Z,3.90
2022-12-08T13:33:31.608Z,3.90
2022-12-08T13:36:20.516Z,3.90
2022-12-08T13:38:51.546Z,3.90
2022-12-08T13:41:23.765Z,3.90
2022-12-08T13:47:24.678Z,3.90
2022-12-08T13:53:49.463Z,3.90
2022-12-08T13:58:19.597Z,3.90
2022-12-08T14:00:59.800Z,3.90
2022-12-08T14:03:28.296Z,3.80
2022-12-08T14:06:12.096Z,3.80
2022-12-08T14:09:02.612Z,3.80
2022-12-08T14:11:37.264Z,3.70
2022-12-08T14:14:09.816Z,3.70
2022-12-08T14:16:41.585Z,3.70
2022-12-08T14:19:19.175Z,3.70
2022-12-08T14:21:57.364Z,3.70
2022-12-08T14:24:27.048Z,3.70
2022-12-08T14:26:58.022Z,3.70
2022-12-08T14:29:45.468Z,3.70
2022-12-08T14:32:33.202Z,3.60
2022-12-08T14:35:12.496Z,3.60
2022-12-08T14:37:43.950Z,3.50
2022-12-08T14:40:23.722Z,3.50
2022-12-08T14:42:54.337Z,3.50
2022-12-08T14:45:23.066Z,3.50
2022-12-08T14:47:53.413Z,3.50
2022-12-08T14:50:43.180Z,3.40
2022-12-08T14:53:17.424Z,3.40
2022-12-08T14:55:48.736Z,3.40
2022-12-08T14:58:24.316Z,3.30
2022-12-08T15:00:56.739Z,3.30
2022-12-08T15:03:28.436Z,3.30
2022-12-08T15:05:59.565Z,3.20
2022-12-08T15:08:28.070Z,3.20
2022-12-08T15:11:27.310Z,3.20
2022-12-08T15:13:55.676Z,3.10
2022-12-08T15:16:29.998Z,3.10
2022-12-08T15:19:16.966Z,3.10
2022-12-08T15:21:46.485Z,3.00
2022-12-08T15:24:16.840Z,3.00
2022-12-08T15:26:47.607Z,3.00
2022-12-08T15:29:23.325Z,3.00
2022-12-08T15:31:53.578Z,3.00
2022-12-08T15:34:23.842Z,2.90
2022-12-08T15:36:54.351Z,2.90
2022-12-08T15:39:31.255Z,2.90
2022-12-08T15:42:00.390Z,2.90
2022-12-08T15:44:32.616Z,2.80
2022-12-08T15:47:02.241Z,2.80
2022-12-08T15:49:32.563Z,2.80
2022-12-08T15:52:11.246Z,2.80
2022-12-08T15:54:40.874Z,2.80
2022-12-08T15:57:29.747Z,2.80
2022-12-08T16:00:43.721Z,2.80
2022-12-08T16:03:34.268Z,2.80
2022-12-08T16:06:50.796Z,2.80
2022-12-08T16:09:00.635Z,2.70
2022-12-08T16:12:06.723Z,2.70
2022-12-08T16:17:26.068Z,2.60
2022-12-08T16:19:54.857Z,2.60
2022-12-08T16:25:20.249Z,2.50
2022-12-08T16:28:01.390Z,2.50
2022-12-08T16:30:31.901Z,2.50
2022-12-08T16:33:00.562Z,2.50
2022-12-08T16:35:29.339Z,2.50
2022-12-08T16:37:59.617Z,2.50
2022-12-08T16:40:28.159Z,2.50
2022-12-08T16:42:55.709Z,2.40
2022-12-08T16:45:26.374Z,2.50
2022-12-08T16:47:56.824Z,2.40
2022-12-08T16:50:27.926Z,2.40
2022-12-08T16:53:00.341Z,2.40
2022-12-08T16:55:29.070Z,2.40
2022-12-08T16:57:57.597Z,2.40
2022-12-08T17:00:28.994Z,2.50
2022-12-08T17:02:58.960Z,2.40
2022-12-08T17:05:28.130Z,2.40
2022-12-08T17:07:58.671Z,2.40
2022-12-08T17:10:30.078Z,2.40
2022-12-08T17:12:58.779Z,2.40
2022-12-08T17:15:27.505Z,2.40
2022-12-08T17:17:56.317Z,2.40
2022-12-08T17:20:28.736Z,2.40
2022-12-08T17:22:59.681Z,2.40
2022-12-08T17:25:28.651Z,2.40
2022-12-08T17:27:57.406Z,2.40
2022-12-08T17:30:25.919Z,2.40
2022-12-08T17:32:54.579Z,2.30
2022-12-08T17:35:23.033Z,2.30
2022-12-08T17:37:51.404Z,2.20
2022-12-08T17:40:21.316Z,2.20
2022-12-08T17:42:49.943Z,2.20
2022-12-08T17:45:18.743Z,2.20
2022-12-08T17:47:47.085Z,2.20
2022-12-08T17:50:15.545Z,2.20
2022-12-08T17:52:44.204Z,2.30
2022-12-08T17:55:12.760Z,2.30
2022-12-08T17:57:42.674Z,2.30
2022-12-08T18:00:13.205Z,2.30
2022-12-08T18:02:41.908Z,2.30
2022-12-08T18:05:10.803Z,2.30
2022-12-08T18:07:39.480Z,2.30
2022-12-08T18:10:09.132Z,2.30
2022-12-08T18:12:37.665Z,2.20
2022-12-08T18:15:09.616Z,2.20
2022-12-08T18:17:38.144Z,2.20
2022-12-08T18:20:09.223Z,2.20
2022-12-08T18:22:37.645Z,2.20
2022-12-08T18:25:06.899Z,2.20
2022-12-08T18:27:41.433Z,2.20
2022-12-08T18:30:16.367Z,2.20
2022-12-08T18:32:44.756Z,2.10
2022-12-08T18:35:13.480Z,2.10
2022-12-08T18:37:43.105Z,2.00
2022-12-08T18:40:13.056Z,2.00
2022-12-08T18:42:41.526Z,1.90
2022-12-08T18:45:10.637Z,1.80
2022-12-08T18:47:41.859Z,1.70
2022-12-08T18:50:12.507Z,1.60
2022-12-08T18:52:41.002Z,1.60
2022-12-08T18:55:10.456Z,1.50
2022-12-08T18:57:39.796Z,1.40
2022-12-08T19:00:10.871Z,1.30
2022-12-08T19:02:41.260Z,1.20
2022-12-08T19:05:11.287Z,1.20
2022-12-08T19:07:40.331Z,1.20
2022-12-08T19:10:10.376Z,1.20
2022-12-08T19:12:38.996Z,1.20
2022-12-08T19:15:08.450Z,1.20
2022-12-08T19:17:37.068Z,1.20
2022-12-08T19:20:09.245Z,1.30
2022-12-08T19:22:37.930Z,1.30
2022-12-08T19:25:07.070Z,1.30
2022-12-08T19:27:35.907Z,1.40
2022-12-08T19:30:05.288Z,1.30
2022-12-08T19:32:34.476Z,1.40
2022-12-08T19:35:07.123Z,1.40
2022-12-08T19:37:36.964Z,1.40
2022-12-08T19:40:23.733Z,1.40
2022-12-08T19:43:09.890Z,1.40
2022-12-08T19:45:39.474Z,1.40
2022-12-08T19:48:08.563Z,1.40
2022-12-08T19:50:40.795Z,1.50
2022-12-08T19:53:12.218Z,1.50
2022-12-08T19:55:41.654Z,1.40
2022-12-08T19:58:11.483Z,1.40
2022-12-08T20:00:45.261Z,1.40
2022-12-08T20:03:16.844Z,1.30
2022-12-08T20:05:47.198Z,1.30
2022-12-08T20:08:17.410Z,1.30
2022-12-08T20:10:49.005Z,1.30
2022-12-08T20:13:34.961Z,1.30
2022-12-08T20:16:03.608Z,1.30
2022-12-08T20:18:32.383Z,1.30
2022-12-08T20:21:01.141Z,1.30
2022-12-08T20:23:31.434Z,1.30
2022-12-08T20:26:00.417Z,1.30
2022-12-08T20:28:28.746Z,1.30
2022-12-08T20:30:57.308Z,1.30
2022-12-08T20:33:25.805Z,1.40
2022-12-08T20:36:01.895Z,1.40
2022-12-08T20:38:32.476Z,1.40
2022-12-08T20:41:01.502Z,1.40
2022-12-08T20:43:30.204Z,1.40
2022-12-08T20:45:58.659Z,1.40
2022-12-08T20:48:27.580Z,1.40
2022-12-08T20:50:55.955Z,1.40
2022-12-08T20:53:24.536Z,1.40
2022-12-08T20:55:55.122Z,1.40
2022-12-08T20:58:24.096Z,1.40
2022-12-08T21:00:53.142Z,1.50
2022-12-08T21:03:23.112Z,1.40
2022-12-08T21:05:53.026Z,1.40
2022-12-08T21:08:25.077Z,1.50
2022-12-08T21:10:58.773Z,1.50
2022-12-08T21:13:27.609Z,1.50
2022-12-08T21:15:56.300Z,1.50
2022-12-08T21:18:26.091Z,1.50
2022-12-08T21:21:02.356Z,1.50
2022-12-08T21:23:31.341Z,1.50
2022-12-08T21:26:01.567Z,1.50
2022-12-08T21:28:30.386Z,1.50
2022-12-08T21:30:58.896Z,1.50
2022-12-08T21:33:27.788Z,1.50
2022-12-08T21:36:03.905Z,1.50
2022-12-08T21:38:33.010Z,1.50
2022-12-08T21:41:06.021Z,1.50
2022-12-08T21:43:35.143Z,1.50
2022-12-08T21:46:04.288Z,1.60
2022-12-08T21:48:36.868Z,1.60
2022-12-08T21:51:06.497Z,1.60
2022-12-08T21:53:35.144Z,1.60
2022-12-08T21:56:10.002Z,1.60
2022-12-08T21:58:39.956Z,1.60
2022-12-08T22:01:09.552Z,1.60
2022-12-08T22:03:44.811Z,1.60
2022-12-08T22:06:14.972Z,1.60
2022-12-08T22:08:43.565Z,1.60
2022-12-08T22:11:14.887Z,1.60
2022-12-08T22:13:43.579Z,1.50
2022-12-08T22:16:16.359Z,1.50
2022-12-08T22:18:44.916Z,1.40
2022-12-08T22:21:15.439Z,1.30
2022-12-08T22:23:44.837Z,1.20
2022-12-08T22:26:14.862Z,1.20
2022-12-08T22:28:44.420Z,1.20
2022-12-08T22:31:14.483Z,1.10
2022-12-08T22:33:43.933Z,1.10
2022-12-08T22:36:16.508Z,1.10
2022-12-08T22:38:44.996Z,1.10
2022-12-08T22:41:15.056Z,1.00
2022-12-08T22:43:44.022Z,1.00
2022-12-08T22:46:16.945Z,1.10
2022-12-08T22:48:45.656Z,1.10
2022-12-08T22:51:14.056Z,1.10
2022-12-08T22:53:43.168Z,1.10
2022-12-08T22:56:14.989Z,1.10
2022-12-08T22:58:44.457Z,1.10
2022-12-08T23:01:24.529Z,1.10
2022-12-08T23:03:53.372Z,1.20
2022-12-08T23:06:22.236Z,1.20
2022-12-08T23:08:51.328Z,1.20
2022-12-08T23:11:23.943Z,1.20
2022-12-08T23:13:52.671Z,1.20
2022-12-08T23:16:58.790Z,1.20
2022-12-08T23:19:28.322Z,1.20
2022-12-08T23:21:56.647Z,1.20
2022-12-08T23:24:25.070Z,1.20
2022-12-08T23:26:55.082Z,1.20
2022-12-08T23:29:23.664Z,1.20
2022-12-08T23:31:52.619Z,1.10
2022-12-08T23:34:21.307Z,1.10
2022-12-08T23:36:49.868Z,1.10
2022-12-08T23:39:18.662Z,1.10
2022-12-08T23:41:47.198Z,1.10
2022-12-08T23:44:17.292Z,1.10
2022-12-08T23:46:46.068Z,1.10
2022-12-08T23:49:14.738Z,1.10
2022-12-08T23:51:43.254Z,1.10
2022-12-08T23:54:11.805Z,1.10
2022-12-08T23:56:40.377Z,1.10
2022-12-08T23:59:08.826Z,1.10
